sensor_id;sensor_type;location;lat;lon;timestamp;pressure;altitude;pressure_sealevel;temperature;humidity
43488;BME280;29078;41.932;25.554;2022-12-07T00:00:52;99761.44;;;10.27;71.15
43488;BME280;29078;41.932;25.554;2022-12-07T00:03:18;99751.69;;;10.28;71.50
43488;BME280;29078;41.932;25.554;2022-12-07T00:05:43;99678.81;;;9.79;71.11
43488;BME280;29078;41.932;25.554;2022-12-07T00:08:09;99722.91;;;10.02;71.32
43488;BME280;29078;41.932;25.554;2022-12-07T00:10:34;99751.03;;;10.17;71.00
43488;BME280;29078;41.932;25.554;2022-12-07T00:13:00;99747.59;;;10.17;71.44
43488;BME280;29078;41.932;25.554;2022-12-07T00:15:25;99691.81;;;9.81;71.51
43488;BME280;29078;41.932;25.554;2022-12-07T00:17:50;99727.50;;;10.08;71.19
43488;BME280;29078;41.932;25.554;2022-12-07T00:20:16;99686.88;;;9.78;71.42
43488;BME280;29078;41.932;25.554;2022-12-07T00:22:41;99703.66;;;9.85;71.31
43488;BME280;29078;41.932;25.554;2022-12-07T00:25:07;99631.78;;;9.36;71.48
43488;BME280;29078;41.932;25.554;2022-12-07T00:27:32;99673.06;;;9.60;71.78
43488;BME280;29078;41.932;25.554;2022-12-07T00:29:58;99613.69;;;9.24;71.34
43488;BME280;29078;41.932;25.554;2022-12-07T00:32:23;99718.16;;;9.89;71.52
43488;BME280;29078;41.932;25.554;2022-12-07T00:34:48;99680.00;;;9.69;71.34
43488;BME280;29078;41.932;25.554;2022-12-07T00:37:14;99673.72;;;9.70;71.44
43488;BME280;29078;41.932;25.554;2022-12-07T00:39:39;99709.13;;;9.83;71.65
43488;BME280;29078;41.932;25.554;2022-12-07T00:42:05;99739.50;;;10.18;71.45
43488;BME280;29078;41.932;25.554;2022-12-07T00:44:30;99674.22;;;9.73;71.20
43488;BME280;29078;41.932;25.554;2022-12-07T00:46:55;99751.22;;;10.16;71.66
43488;BME280;29078;41.932;25.554;2022-12-07T00:49:21;99682.44;;;9.78;71.33
43488;BME280;29078;41.932;25.554;2022-12-07T00:51:48;99753.03;;;10.24;71.10
43488;BME280;29078;41.932;25.554;2022-12-07T00:54:14;99749.41;;;10.25;70.85
43488;BME280;29078;41.932;25.554;2022-12-07T00:56:39;99695.94;;;9.83;71.01
43488;BME280;29078;41.932;25.554;2022-12-07T00:59:05;99712.34;;;10.02;71.79
43488;BME280;29078;41.932;25.554;2022-12-07T01:01:35;99695.59;;;9.86;71.19
43488;BME280;29078;41.932;25.554;2022-12-07T01:04:02;99690.84;;;9.74;71.07
43488;BME280;29078;41.932;25.554;2022-12-07T01:06:28;99755.69;;;10.24;71.84
43488;BME280;29078;41.932;25.554;2022-12-07T01:08:54;99669.41;;;9.77;70.87
43488;BME280;29078;41.932;25.554;2022-12-07T01:11:23;99713.84;;;10.04;70.89
43488;BME280;29078;41.932;25.554;2022-12-07T01:13:53;99641.91;;;9.63;71.16
43488;BME280;29078;41.932;25.554;2022-12-07T01:16:20;99740.31;;;10.27;71.57
43488;BME280;29078;41.932;25.554;2022-12-07T01:18:48;99664.94;;;9.85;71.11
43488;BME280;29078;41.932;25.554;2022-12-07T01:21:19;99730.59;;;10.28;71.75
43488;BME280;29078;41.932;25.554;2022-12-07T01:23:49;99750.06;;;10.27;71.59
43488;BME280;29078;41.932;25.554;2022-12-07T01:26:17;99731.75;;;10.25;71.81
43488;BME280;29078;41.932;25.554;2022-12-07T01:28:44;99727.31;;;10.17;71.89
43488;BME280;29078;41.932;25.554;2022-12-07T01:31:12;99718.56;;;10.17;71.95
43488;BME280;29078;41.932;25.554;2022-12-07T01:33:41;99690.94;;;9.97;71.44
43488;BME280;29078;41.932;25.554;2022-12-07T01:38:40;99687.13;;;9.99;71.83
43488;BME280;29078;41.932;25.554;2022-12-07T01:41:06;99616.56;;;9.54;71.76
43488;BME280;29078;41.932;25.554;2022-12-07T01:43:32;99712.13;;;10.19;71.83
43488;BME280;29078;41.932;25.554;2022-12-07T01:45:59;99664.75;;;9.87;71.67
43488;BME280;29078;41.932;25.554;2022-12-07T01:48:45;99720.03;;;10.19;71.80
43488;BME280;29078;41.932;25.554;2022-12-07T01:51:12;99696.50;;;10.10;71.45
43488;BME280;29078;41.932;25.554;2022-12-07T01:53:43;99703.38;;;10.19;72.11
43488;BME280;29078;41.932;25.554;2022-12-07T01:56:15;99673.94;;;9.99;72.18
43488;BME280;29078;41.932;25.554;2022-12-07T01:58:42;99704.59;;;10.08;71.92
43488;BME280;29078;41.932;25.554;2022-12-07T02:01:07;99649.63;;;9.81;72.36
43488;BME280;29078;41.932;25.554;2022-12-07T02:03:43;99582.53;;;9.36;72.48
43488;BME280;29078;41.932;25.554;2022-12-07T02:06:12;99610.63;;;9.60;72.09
43488;BME280;29078;41.932;25.554;2022-12-07T02:08:40;99692.34;;;10.15;72.13
43488;BME280;29078;41.932;25.554;2022-12-07T02:11:06;99718.91;;;10.14;72.15
43488;BME280;29078;41.932;25.554;2022-12-07T02:13:34;99697.78;;;10.14;71.77
43488;BME280;29078;41.932;25.554;2022-12-07T02:29:45;99625.63;;;9.51;72.50
43488;BME280;29078;41.932;25.554;2022-12-07T02:35:47;99683.16;;;10.03;72.27
43488;BME280;29078;41.932;25.554;2022-12-07T02:38:22;99677.06;;;10.03;72.52
43488;BME280;29078;41.932;25.554;2022-12-07T02:40:55;99652.75;;;9.84;72.47
43488;BME280;29078;41.932;25.554;2022-12-07T02:43:30;99663.72;;;10.04;72.23
43488;BME280;29078;41.932;25.554;2022-12-07T02:46:03;99674.75;;;10.08;72.40
43488;BME280;29078;41.932;25.554;2022-12-07T02:48:31;99585.13;;;9.52;72.63
43488;BME280;29078;41.932;25.554;2022-12-07T02:50:58;99672.59;;;10.11;72.26
43488;BME280;29078;41.932;25.554;2022-12-07T02:53:36;99605.34;;;9.60;72.19
43488;BME280;29078;41.932;25.554;2022-12-07T02:56:24;99666.66;;;10.09;72.27
43488;BME280;29078;41.932;25.554;2022-12-07T02:59:17;99677.84;;;10.11;72.21
43488;BME280;29078;41.932;25.554;2022-12-07T03:06:57;99577.03;;;9.54;71.84
43488;BME280;29078;41.932;25.554;2022-12-07T03:09:40;99616.38;;;9.72;71.88
43488;BME280;29078;41.932;25.554;2022-12-07T03:12:14;99538.59;;;9.29;71.93
43488;BME280;29078;41.932;25.554;2022-12-07T03:14:45;99655.88;;;9.88;72.97
43488;BME280;29078;41.932;25.554;2022-12-07T03:17:24;99647.34;;;9.78;72.40
43488;BME280;29078;41.932;25.554;2022-12-07T03:19:56;99654.03;;;9.88;72.29
43488;BME280;29078;41.932;25.554;2022-12-07T03:22:23;99646.66;;;9.84;72.39
43488;BME280;29078;41.932;25.554;2022-12-07T03:24:55;99670.97;;;10.02;72.51
43488;BME280;29078;41.932;25.554;2022-12-07T03:27:34;99668.97;;;10.04;72.91
43488;BME280;29078;41.932;25.554;2022-12-07T03:30:05;99668.81;;;10.06;72.55
43488;BME280;29078;41.932;25.554;2022-12-07T03:32:37;99669.97;;;10.03;72.97
43488;BME280;29078;41.932;25.554;2022-12-07T03:35:17;99670.16;;;10.02;72.65
43488;BME280;29078;41.932;25.554;2022-12-07T03:38:23;99639.91;;;9.81;72.46
43488;BME280;29078;41.932;25.554;2022-12-07T03:40:57;99612.25;;;9.61;72.45
43488;BME280;29078;41.932;25.554;2022-12-07T03:43:28;99582.47;;;9.52;72.50
43488;BME280;29078;41.932;25.554;2022-12-07T03:46:09;99658.28;;;9.98;72.74
43488;BME280;29078;41.932;25.554;2022-12-07T03:48:41;99443.78;;;8.57;72.62
43488;BME280;29078;41.932;25.554;2022-12-07T03:51:13;99662.97;;;9.79;73.14
43488;BME280;29078;41.932;25.554;2022-12-07T03:53:50;99628.72;;;9.63;72.92
43488;BME280;29078;41.932;25.554;2022-12-07T03:56:20;99577.22;;;9.44;73.02
43488;BME280;29078;41.932;25.554;2022-12-07T03:58:46;99580.03;;;9.43;73.12
43488;BME280;29078;41.932;25.554;2022-12-07T04:01:11;99627.53;;;9.82;72.83
43488;BME280;29078;41.932;25.554;2022-12-07T04:03:37;99594.63;;;9.62;72.83
43488;BME280;29078;41.932;25.554;2022-12-07T04:06:02;99513.44;;;9.18;72.72
43488;BME280;29078;41.932;25.554;2022-12-07T04:08:28;99613.09;;;9.70;72.33
43488;BME280;29078;41.932;25.554;2022-12-07T04:10:53;99549.56;;;9.40;72.50
43488;BME280;29078;41.932;25.554;2022-12-07T04:13:19;99664.34;;;10.06;72.74
43488;BME280;29078;41.932;25.554;2022-12-07T04:15:44;99560.09;;;9.48;72.87
43488;BME280;29078;41.932;25.554;2022-12-07T04:18:09;99628.84;;;9.86;72.72
43488;BME280;29078;41.932;25.554;2022-12-07T04:20:35;99546.59;;;9.43;72.02
43488;BME280;29078;41.932;25.554;2022-12-07T04:23:00;99625.03;;;9.88;72.04
43488;BME280;29078;41.932;25.554;2022-12-07T04:25:26;99635.38;;;9.98;72.23
43488;BME280;29078;41.932;25.554;2022-12-07T04:27:51;99534.16;;;9.21;72.66
43488;BME280;29078;41.932;25.554;2022-12-07T04:30:18;99648.53;;;10.06;72.63
43488;BME280;29078;41.932;25.554;2022-12-07T04:32:44;99618.63;;;9.83;73.08
43488;BME280;29078;41.932;25.554;2022-12-07T04:35:09;99639.00;;;9.97;72.96
43488;BME280;29078;41.932;25.554;2022-12-07T04:37:35;99580.47;;;9.63;72.62
43488;BME280;29078;41.932;25.554;2022-12-07T04:40:00;99584.75;;;9.72;72.49
43488;BME280;29078;41.932;25.554;2022-12-07T04:42:26;99515.53;;;9.31;72.55
43488;BME280;29078;41.932;25.554;2022-12-07T04:44:51;99609.56;;;9.85;72.41
43488;BME280;29078;41.932;25.554;2022-12-07T04:47:16;99621.75;;;9.86;72.53
43488;BME280;29078;41.932;25.554;2022-12-07T04:49:42;99643.09;;;10.08;72.27
43488;BME280;29078;41.932;25.554;2022-12-07T04:52:08;99561.22;;;9.54;72.52
43488;BME280;29078;41.932;25.554;2022-12-07T04:54:34;99592.66;;;9.72;72.18
43488;BME280;29078;41.932;25.554;2022-12-07T04:56:59;99559.28;;;9.48;72.35
43488;BME280;29078;41.932;25.554;2022-12-07T04:59:25;99561.94;;;9.40;72.86
43488;BME280;29078;41.932;25.554;2022-12-07T05:01:50;99593.16;;;9.59;72.74
43488;BME280;29078;41.932;25.554;2022-12-07T05:04:16;99579.53;;;9.47;73.14
43488;BME280;29078;41.932;25.554;2022-12-07T05:06:42;99547.78;;;9.33;72.82
43488;BME280;29078;41.932;25.554;2022-12-07T05:09:08;99659.63;;;9.94;72.75
43488;BME280;29078;41.932;25.554;2022-12-07T05:11:33;99612.78;;;9.56;73.27
43488;BME280;29078;41.932;25.554;2022-12-07T05:14:20;99559.00;;;9.35;72.69
43488;BME280;29078;41.932;25.554;2022-12-07T05:16:48;99663.91;;;9.95;72.89
43488;BME280;29078;41.932;25.554;2022-12-07T05:19:14;99548.97;;;9.22;72.57
43488;BME280;29078;41.932;25.554;2022-12-07T05:21:39;99587.59;;;9.46;73.01
43488;BME280;29078;41.932;25.554;2022-12-07T05:24:06;99658.63;;;9.95;73.00
43488;BME280;29078;41.932;25.554;2022-12-07T05:26:33;99569.34;;;9.36;72.91
43488;BME280;29078;41.932;25.554;2022-12-07T05:28:59;99513.31;;;9.03;72.83
43488;BME280;29078;41.932;25.554;2022-12-07T05:31:26;99657.69;;;9.87;72.37
43488;BME280;29078;41.932;25.554;2022-12-07T05:33:52;99639.78;;;9.67;72.81
43488;BME280;29078;41.932;25.554;2022-12-07T05:36:17;99521.56;;;9.00;72.69
43488;BME280;29078;41.932;25.554;2022-12-07T05:38:43;99618.56;;;9.52;73.40
43488;BME280;29078;41.932;25.554;2022-12-07T05:41:09;99336.34;;;7.81;72.76
43488;BME280;29078;41.932;25.554;2022-12-07T05:43:57;99582.19;;;9.39;72.74
43488;BME280;29078;41.932;25.554;2022-12-07T05:46:22;99590.56;;;9.43;72.61
43488;BME280;29078;41.932;25.554;2022-12-07T05:48:48;99646.00;;;9.82;73.34
43488;BME280;29078;41.932;25.554;2022-12-07T05:51:13;99585.97;;;9.45;72.99
43488;BME280;29078;41.932;25.554;2022-12-07T05:53:39;99567.41;;;9.30;72.47
43488;BME280;29078;41.932;25.554;2022-12-07T05:56:04;99587.94;;;9.43;72.92
43488;BME280;29078;41.932;25.554;2022-12-07T05:58:30;99639.41;;;9.78;72.55
43488;BME280;29078;41.932;25.554;2022-12-07T06:01:14;99495.38;;;8.99;72.73
43488;BME280;29078;41.932;25.554;2022-12-07T06:03:39;99586.94;;;9.44;72.68
43488;BME280;29078;41.932;25.554;2022-12-07T06:06:05;99664.13;;;9.85;72.81
43488;BME280;29078;41.932;25.554;2022-12-07T06:08:30;99563.75;;;9.39;72.23
43488;BME280;29078;41.932;25.554;2022-12-07T06:10:55;99594.34;;;9.48;72.61
43488;BME280;29078;41.932;25.554;2022-12-07T06:13:39;99582.66;;;9.43;71.90
43488;BME280;29078;41.932;25.554;2022-12-07T06:16:05;99588.44;;;9.46;71.92
43488;BME280;29078;41.932;25.554;2022-12-07T06:18:30;99651.88;;;9.92;71.47
43488;BME280;29078;41.932;25.554;2022-12-07T06:20:56;99563.75;;;9.39;71.75
43488;BME280;29078;41.932;25.554;2022-12-07T06:23:21;99612.09;;;9.71;72.16
43488;BME280;29078;41.932;25.554;2022-12-07T06:25:47;99656.44;;;10.06;71.64
43488;BME280;29078;41.932;25.554;2022-12-07T06:28:12;99635.06;;;9.93;72.07
43488;BME280;29078;41.932;25.554;2022-12-07T06:30:37;99585.25;;;9.67;71.93
43488;BME280;29078;41.932;25.554;2022-12-07T06:33:03;99414.19;;;8.55;72.05
43488;BME280;29078;41.932;25.554;2022-12-07T06:35:28;99615.66;;;9.86;72.04
43488;BME280;29078;41.932;25.554;2022-12-07T06:37:54;99583.44;;;9.68;71.25
43488;BME280;29078;41.932;25.554;2022-12-07T06:40:19;99562.66;;;9.65;71.99
43488;BME280;29078;41.932;25.554;2022-12-07T06:42:44;99598.97;;;9.94;71.96
43488;BME280;29078;41.932;25.554;2022-12-07T06:45:10;99606.53;;;9.97;71.61
43488;BME280;29078;41.932;25.554;2022-12-07T06:47:35;99561.66;;;9.74;70.84
43488;BME280;29078;41.932;25.554;2022-12-07T06:50:01;99600.00;;;9.84;71.13
43488;BME280;29078;41.932;25.554;2022-12-07T06:52:26;99667.56;;;10.33;71.20
43488;BME280;29078;41.932;25.554;2022-12-07T06:54:51;99593.38;;;9.88;71.01
43488;BME280;29078;41.932;25.554;2022-12-07T06:57:17;99651.94;;;10.23;71.74
43488;BME280;29078;41.932;25.554;2022-12-07T06:59:42;99660.34;;;10.27;71.57
43488;BME280;29078;41.932;25.554;2022-12-07T07:02:08;99621.16;;;10.07;71.43
43488;BME280;29078;41.932;25.554;2022-12-07T07:04:34;99626.09;;;10.10;71.67
43488;BME280;29078;41.932;25.554;2022-12-07T07:07:00;99675.47;;;10.41;71.20
43488;BME280;29078;41.932;25.554;2022-12-07T07:09:25;99648.31;;;10.16;71.45
43488;BME280;29078;41.932;25.554;2022-12-07T07:11:51;99667.38;;;10.42;71.01
43488;BME280;29078;41.932;25.554;2022-12-07T07:14:16;99607.84;;;10.01;71.37
43488;BME280;29078;41.932;25.554;2022-12-07T07:16:44;99591.41;;;9.91;71.30
43488;BME280;29078;41.932;25.554;2022-12-07T07:19:09;99666.72;;;10.32;70.88
43488;BME280;29078;41.932;25.554;2022-12-07T07:21:36;99685.97;;;10.49;70.84
43488;BME280;29078;41.932;25.554;2022-12-07T07:24:02;99690.25;;;10.50;71.27
43488;BME280;29078;41.932;25.554;2022-12-07T07:26:27;99561.66;;;9.74;70.59
43488;BME280;29078;41.932;25.554;2022-12-07T07:28:52;99668.50;;;10.40;70.64
43488;BME280;29078;41.932;25.554;2022-12-07T07:31:18;99625.78;;;10.05;71.07
43488;BME280;29078;41.932;25.554;2022-12-07T07:33:45;99666.09;;;10.30;71.02
43488;BME280;29078;41.932;25.554;2022-12-07T07:36:11;99613.94;;;10.01;71.54
43488;BME280;29078;41.932;25.554;2022-12-07T07:38:37;99625.78;;;10.05;71.13
43488;BME280;29078;41.932;25.554;2022-12-07T07:41:02;99603.09;;;9.96;71.36
43488;BME280;29078;41.932;25.554;2022-12-07T07:43:28;99682.88;;;10.37;71.67
43488;BME280;29078;41.932;25.554;2022-12-07T07:45:53;99629.06;;;10.07;71.26
43488;BME280;29078;41.932;25.554;2022-12-07T07:48:19;99608.84;;;10.00;71.02
43488;BME280;29078;41.932;25.554;2022-12-07T07:50:44;99631.38;;;10.10;71.09
43488;BME280;29078;41.932;25.554;2022-12-07T07:53:10;99643.81;;;10.33;71.15
43488;BME280;29078;41.932;25.554;2022-12-07T07:55:35;99562.88;;;9.94;70.73
43488;BME280;29078;41.932;25.554;2022-12-07T07:58:01;99612.84;;;10.27;70.45
43488;BME280;29078;41.932;25.554;2022-12-07T08:00:26;99673.03;;;10.62;70.73
43488;BME280;29078;41.932;25.554;2022-12-07T08:02:51;99677.25;;;10.71;70.32
43488;BME280;29078;41.932;25.554;2022-12-07T08:05:17;99686.81;;;10.72;70.36
43488;BME280;29078;41.932;25.554;2022-12-07T08:07:43;99683.00;;;10.75;70.66
43488;BME280;29078;41.932;25.554;2022-12-07T08:10:11;99589.09;;;10.18;70.40
43488;BME280;29078;41.932;25.554;2022-12-07T08:12:41;99599.34;;;10.22;69.83
43488;BME280;29078;41.932;25.554;2022-12-07T08:15:30;99674.91;;;10.76;70.24
43488;BME280;29078;41.932;25.554;2022-12-07T08:17:55;99608.16;;;10.37;70.28
43488;BME280;29078;41.932;25.554;2022-12-07T08:20:21;99669.25;;;10.79;70.26
43488;BME280;29078;41.932;25.554;2022-12-07T08:22:47;99655.41;;;10.77;69.94
43488;BME280;29078;41.932;25.554;2022-12-07T08:25:12;99573.19;;;10.35;69.20
43488;BME280;29078;41.932;25.554;2022-12-07T08:27:38;99674.25;;;10.97;69.30
43488;BME280;29078;41.932;25.554;2022-12-07T08:30:03;99537.75;;;10.06;69.45
43488;BME280;29078;41.932;25.554;2022-12-07T08:32:29;99616.81;;;10.54;69.29
43488;BME280;29078;41.932;25.554;2022-12-07T08:34:54;99673.03;;;10.85;68.50
43488;BME280;29078;41.932;25.554;2022-12-07T08:37:20;99664.09;;;10.86;68.63
43488;BME280;29078;41.932;25.554;2022-12-07T08:39:45;99636.88;;;10.63;68.52
43488;BME280;29078;41.932;25.554;2022-12-07T08:42:11;99660.28;;;10.89;68.76
43488;BME280;29078;41.932;25.554;2022-12-07T08:44:36;99680.53;;;10.96;68.50
43488;BME280;29078;41.932;25.554;2022-12-07T08:47:04;99669.44;;;11.01;68.50
43488;BME280;29078;41.932;25.554;2022-12-07T08:49:36;99581.19;;;10.49;68.44
43488;BME280;29078;41.932;25.554;2022-12-07T08:52:04;99665.31;;;10.98;68.13
43488;BME280;29078;41.932;25.554;2022-12-07T08:54:30;99639.16;;;10.89;68.71
43488;BME280;29078;41.932;25.554;2022-12-07T08:56:56;99649.38;;;10.92;68.19
43488;BME280;29078;41.932;25.554;2022-12-07T08:59:22;99623.16;;;10.67;68.54
43488;BME280;29078;41.932;25.554;2022-12-07T09:01:48;99549.25;;;10.36;68.35
43488;BME280;29078;41.932;25.554;2022-12-07T09:04:13;99605.13;;;10.71;68.53
43488;BME280;29078;41.932;25.554;2022-12-07T09:06:41;99591.75;;;10.72;67.99
43488;BME280;29078;41.932;25.554;2022-12-07T09:09:07;99597.72;;;10.89;68.21
43488;BME280;29078;41.932;25.554;2022-12-07T09:11:33;99629.97;;;11.22;68.04
43488;BME280;29078;41.932;25.554;2022-12-07T09:13:59;99548.56;;;10.65;67.68
43488;BME280;29078;41.932;25.554;2022-12-07T09:16:24;99634.31;;;11.15;67.70
43488;BME280;29078;41.932;25.554;2022-12-07T09:18:50;99616.78;;;10.99;67.69
43488;BME280;29078;41.932;25.554;2022-12-07T09:21:15;99575.78;;;10.66;67.67
43488;BME280;29078;41.932;25.554;2022-12-07T09:23:43;99560.66;;;10.60;67.75
43488;BME280;29078;41.932;25.554;2022-12-07T09:26:09;99606.75;;;10.95;68.40
43488;BME280;29078;41.932;25.554;2022-12-07T09:28:34;99581.75;;;10.82;67.90
43488;BME280;29078;41.932;25.554;2022-12-07T09:31:00;99562.41;;;10.67;68.11
43488;BME280;29078;41.932;25.554;2022-12-07T09:33:25;99532.78;;;10.57;67.55
43488;BME280;29078;41.932;25.554;2022-12-07T09:35:51;99625.72;;;11.13;67.54
43488;BME280;29078;41.932;25.554;2022-12-07T09:38:18;99489.63;;;10.27;67.20
43488;BME280;29078;41.932;25.554;2022-12-07T09:40:44;99584.25;;;10.99;67.12
43488;BME280;29078;41.932;25.554;2022-12-07T09:43:28;99504.13;;;10.54;67.14
43488;BME280;29078;41.932;25.554;2022-12-07T09:45:54;99501.59;;;10.75;66.64
43488;BME280;29078;41.932;25.554;2022-12-07T09:48:24;99597.53;;;11.43;67.38
43488;BME280;29078;41.932;25.554;2022-12-07T09:50:52;99553.97;;;11.24;66.75
43488;BME280;29078;41.932;25.554;2022-12-07T09:53:34;99508.72;;;11.04;66.81
43488;BME280;29078;41.932;25.554;2022-12-07T09:56:01;99501.25;;;10.93;66.53
43488;BME280;29078;41.932;25.554;2022-12-07T09:58:28;99593.44;;;11.55;65.86
43488;BME280;29078;41.932;25.554;2022-12-07T10:03:32;99591.88;;;11.46;66.13
43488;BME280;29078;41.932;25.554;2022-12-07T10:05:58;99579.84;;;11.43;65.88
43488;BME280;29078;41.932;25.554;2022-12-07T10:08:24;99536.47;;;11.23;66.11
43488;BME280;29078;41.932;25.554;2022-12-07T10:10:52;99373.44;;;10.35;66.21
43488;BME280;29078;41.932;25.554;2022-12-07T10:13:21;99541.91;;;11.51;65.71
43488;BME280;29078;41.932;25.554;2022-12-07T10:15:53;99574.53;;;11.73;65.63
43488;BME280;29078;41.932;25.554;2022-12-07T10:20:46;99502.53;;;11.41;65.14
43488;BME280;29078;41.932;25.554;2022-12-07T10:23:17;99478.47;;;11.36;65.20
43488;BME280;29078;41.932;25.554;2022-12-07T10:25:44;99555.94;;;11.96;65.05
43488;BME280;29078;41.932;25.554;2022-12-07T10:28:17;99497.03;;;11.58;64.83
43488;BME280;29078;41.932;25.554;2022-12-07T10:33:53;99550.47;;;11.97;64.73
43488;BME280;29078;41.932;25.554;2022-12-07T10:36:26;99546.44;;;12.01;64.67
43488;BME280;29078;41.932;25.554;2022-12-07T10:39:10;99506.69;;;11.80;64.26
43488;BME280;29078;41.932;25.554;2022-12-07T10:41:55;99470.78;;;11.56;64.32
43488;BME280;29078;41.932;25.554;2022-12-07T10:44:26;99430.09;;;11.36;64.29
43488;BME280;29078;41.932;25.554;2022-12-07T11:01:33;99535.22;;;12.21;63.85
43488;BME280;29078;41.932;25.554;2022-12-07T11:10:24;99527.66;;;12.39;63.77
43488;BME280;29078;41.932;25.554;2022-12-07T11:13:27;99484.44;;;12.11;63.06
43488;BME280;29078;41.932;25.554;2022-12-07T11:16:02;99514.53;;;12.52;63.42
43488;BME280;29078;41.932;25.554;2022-12-07T11:22:03;99479.44;;;12.44;62.72
43488;BME280;29078;41.932;25.554;2022-12-07T11:24:25;99511.56;;;12.62;63.08
43488;BME280;29078;41.932;25.554;2022-12-07T11:35:33;99492.03;;;12.41;63.01
43488;BME280;29078;41.932;25.554;2022-12-07T11:38:17;99443.28;;;12.08;63.55
43488;BME280;29078;41.932;25.554;2022-12-07T11:40:48;99496.72;;;12.39;63.17
43488;BME280;29078;41.932;25.554;2022-12-07T11:43:27;99487.03;;;12.25;63.50
43488;BME280;29078;41.932;25.554;2022-12-07T11:46:05;99384.22;;;11.65;63.75
43488;BME280;29078;41.932;25.554;2022-12-07T11:48:43;99472.81;;;12.33;63.48
43488;BME280;29078;41.932;25.554;2022-12-07T11:51:12;99433.78;;;12.14;63.16
43488;BME280;29078;41.932;25.554;2022-12-07T11:53:48;99457.13;;;12.31;62.98
43488;BME280;29078;41.932;25.554;2022-12-07T11:56:20;99431.13;;;12.14;63.48
43488;BME280;29078;41.932;25.554;2022-12-07T11:58:49;99460.97;;;12.29;63.49
43488;BME280;29078;41.932;25.554;2022-12-07T12:06:26;99420.34;;;12.15;63.59
43488;BME280;29078;41.932;25.554;2022-12-07T12:22:28;99448.44;;;12.16;63.62
43488;BME280;29078;41.932;25.554;2022-12-07T12:24:53;99450.09;;;12.17;63.93
43488;BME280;29078;41.932;25.554;2022-12-07T12:27:25;99386.66;;;11.81;63.80
43488;BME280;29078;41.932;25.554;2022-12-07T12:29:57;99431.69;;;12.09;63.79
43488;BME280;29078;41.932;25.554;2022-12-07T12:37:46;99418.03;;;12.05;64.37
43488;BME280;29078;41.932;25.554;2022-12-07T12:42:51;99362.06;;;11.66;64.05
43488;BME280;29078;41.932;25.554;2022-12-07T12:45:26;99377.91;;;12.02;63.88
43488;BME280;29078;41.932;25.554;2022-12-07T12:47:59;99424.97;;;12.34;64.27
43488;BME280;29078;41.932;25.554;2022-12-07T12:50:36;99425.81;;;12.35;63.89
43488;BME280;29078;41.932;25.554;2022-12-07T12:53:21;99425.38;;;12.31;64.27
43488;BME280;29078;41.932;25.554;2022-12-07T12:58:39;99433.50;;;12.30;64.59
43488;BME280;29078;41.932;25.554;2022-12-07T13:04:16;99399.38;;;12.14;64.45
43488;BME280;29078;41.932;25.554;2022-12-07T13:06:43;99350.88;;;11.85;64.34
43488;BME280;29078;41.932;25.554;2022-12-07T13:09:28;99386.22;;;11.99;64.48
43488;BME280;29078;41.932;25.554;2022-12-07T13:12:02;99423.06;;;12.22;64.40
43488;BME280;29078;41.932;25.554;2022-12-07T13:17:10;99370.16;;;11.79;64.26
43488;BME280;29078;41.932;25.554;2022-12-07T13:25:11;99396.47;;;11.87;64.90
43488;BME280;29078;41.932;25.554;2022-12-07T13:27:40;99429.69;;;12.11;64.73
43488;BME280;29078;41.932;25.554;2022-12-07T13:30:18;99468.94;;;12.07;64.77
43488;BME280;29078;41.932;25.554;2022-12-07T13:32:54;99377.16;;;11.72;64.85
43488;BME280;29078;41.932;25.554;2022-12-07T13:35:35;99417.03;;;12.06;64.87
43488;BME280;29078;41.932;25.554;2022-12-07T13:38:02;99378.53;;;11.83;65.02
43488;BME280;29078;41.932;25.554;2022-12-07T13:40:29;99352.44;;;11.58;65.21
43488;BME280;29078;41.932;25.554;2022-12-07T13:43:00;99371.88;;;11.72;65.25
43488;BME280;29078;41.932;25.554;2022-12-07T13:45:27;99432.66;;;12.01;65.25
43488;BME280;29078;41.932;25.554;2022-12-07T13:48:16;99418.81;;;11.85;64.90
43488;BME280;29078;41.932;25.554;2022-12-07T13:50:52;99425.09;;;11.98;65.07
43488;BME280;29078;41.932;25.554;2022-12-07T13:53:18;99434.03;;;11.97;65.51
43488;BME280;29078;41.932;25.554;2022-12-07T13:55:45;99309.19;;;11.23;65.34
43488;BME280;29078;41.932;25.554;2022-12-07T13:58:12;99314.66;;;11.22;65.15
43488;BME280;29078;41.932;25.554;2022-12-07T14:00:37;99393.03;;;11.72;65.40
43488;BME280;29078;41.932;25.554;2022-12-07T14:03:34;99434.22;;;11.96;65.72
43488;BME280;29078;41.932;25.554;2022-12-07T14:06:15;99432.78;;;11.93;65.38
43488;BME280;29078;41.932;25.554;2022-12-07T14:08:41;99439.91;;;11.93;65.69
43488;BME280;29078;41.932;25.554;2022-12-07T14:11:12;99346.50;;;11.35;65.34
43488;BME280;29078;41.932;25.554;2022-12-07T14:13:45;99439.47;;;11.89;65.63
43488;BME280;29078;41.932;25.554;2022-12-07T14:16:30;99362.94;;;11.30;65.64
43488;BME280;29078;41.932;25.554;2022-12-07T14:18:58;99410.03;;;11.63;66.04
43488;BME280;29078;41.932;25.554;2022-12-07T14:21:27;99451.22;;;11.87;65.73
43488;BME280;29078;41.932;25.554;2022-12-07T14:24:22;99450.94;;;11.82;66.16
43488;BME280;29078;41.932;25.554;2022-12-07T14:26:49;99455.81;;;11.78;66.17
43488;BME280;29078;41.932;25.554;2022-12-07T14:31:54;99446.94;;;11.71;66.03
43488;BME280;29078;41.932;25.554;2022-12-07T14:34:21;99445.16;;;11.57;66.12
43488;BME280;29078;41.932;25.554;2022-12-07T14:36:46;99431.94;;;11.57;66.45
43488;BME280;29078;41.932;25.554;2022-12-07T14:39:12;99332.19;;;10.93;66.55
43488;BME280;29078;41.932;25.554;2022-12-07T14:41:37;99415.00;;;11.51;66.57
43488;BME280;29078;41.932;25.554;2022-12-07T14:44:22;99339.00;;;11.02;66.83
43488;BME280;29078;41.932;25.554;2022-12-07T14:46:49;99294.09;;;10.66;66.18
43488;BME280;29078;41.932;25.554;2022-12-07T14:49:17;99282.66;;;10.44;66.62
43488;BME280;29078;41.932;25.554;2022-12-07T14:51:44;99436.28;;;11.64;66.81